createdAt,value
2022-10-23T00:01:46.376Z,21.20
2022-10-23T00:04:19.060Z,20.97
2022-10-23T00:06:49.503Z,22.00
2022-10-23T00:09:22.234Z,17.70
2022-10-23T00:11:52.574Z,19.67
2022-10-23T00:14:24.563Z,22.17
2022-10-23T00:16:53.979Z,23.40
2022-10-23T00:19:21.836Z,22.83
2022-10-23T00:21:49.782Z,20.83
2022-10-23T00:24:17.897Z,21.30
2022-10-23T00:26:46.100Z,20.20
2022-10-23T00:29:13.924Z,19.33
2022-10-23T00:31:43.065Z,24.27
2022-10-23T00:34:12.019Z,20.17
2022-10-23T00:36:40.051Z,17.47
2022-10-23T00:39:07.943Z,20.33
2022-10-23T00:41:35.852Z,20.63
2022-10-23T00:44:09.109Z,20.10
2022-10-23T00:46:39.266Z,15.93
2022-10-23T00:51:47.446Z,19.93
2022-10-23T00:54:24.303Z,17.07
2022-10-23T00:56:58.342Z,15.93
2022-10-23T00:59:27.778Z,16.13
2022-10-23T01:01:56.649Z,16.97
2022-10-23T01:04:27.704Z,19.43
2022-10-23T01:07:05.538Z,21.20
2022-10-23T01:09:41.653Z,22.03
2022-10-23T01:12:23.316Z,23.57
2022-10-23T01:15:07.073Z,24.30
2022-10-23T01:17:44.448Z,21.70
2022-10-23T01:20:39.725Z,24.87
2022-10-23T01:23:47.679Z,20.17
2022-10-23T01:26:37.227Z,16.60
2022-10-23T01:29:20.345Z,18.90
2022-10-23T01:31:56.361Z,17.87
2022-10-23T01:34:36.873Z,16.53
2022-10-23T01:37:10.463Z,21.37
2022-10-23T01:39:47.352Z,16.23
2022-10-23T01:42:22.401Z,16.70
2022-10-23T01:44:59.554Z,14.18
2022-10-23T01:47:34.026Z,17.33
2022-10-23T01:50:10.615Z,17.67
2022-10-23T01:52:42.320Z,16.75
2022-10-23T01:55:13.425Z,13.87
2022-10-23T01:57:45.651Z,16.90
2022-10-23T02:00:21.018Z,13.80
2022-10-23T02:02:58.781Z,18.37
2022-10-23T02:05:33.246Z,17.17
2022-10-23T02:08:03.851Z,15.07
2022-10-23T02:10:52.518Z,19.63
2022-10-23T02:13:32.254Z,17.07
2022-10-23T02:16:13.217Z,15.60
2022-10-23T02:18:54.279Z,17.73
2022-10-23T02:21:32.122Z,17.90
2022-10-23T02:24:07.534Z,17.00
2022-10-23T02:26:43.605Z,17.20
2022-10-23T02:29:25.530Z,19.90
2022-10-23T02:31:54.798Z,20.80
2022-10-23T02:34:23.278Z,16.83
2022-10-23T02:36:51.303Z,19.93
2022-10-23T02:39:26.709Z,14.97
2022-10-23T02:42:07.338Z,17.83
2022-10-23T02:44:53.806Z,18.13
2022-10-23T02:47:38.470Z,19.40
2022-10-23T02:50:18.537Z,16.77
2022-10-23T02:52:58.495Z,18.27
2022-10-23T02:55:43.234Z,22.93
2022-10-23T02:58:27.342Z,20.90
2022-10-23T03:01:09.965Z,16.53
2022-10-23T03:03:45.592Z,15.87
2022-10-23T03:08:44.984Z,17.03
2022-10-23T03:11:12.801Z,17.13
2022-10-23T03:13:40.626Z,23.97
2022-10-23T03:16:08.445Z,20.13
2022-10-23T03:18:36.897Z,21.13
2022-10-23T03:21:06.632Z,19.67
2022-10-23T03:23:36.533Z,19.70
2022-10-23T03:26:06.028Z,15.70
2022-10-23T03:28:39.180Z,19.80
2022-10-23T03:31:07.076Z,20.10
2022-10-23T03:33:35.057Z,19.80
2022-10-23T03:36:13.118Z,20.97
2022-10-23T03:38:41.336Z,20.40
2022-10-23T03:41:09.180Z,23.03
2022-10-23T03:43:38.454Z,29.53
2022-10-23T03:46:12.282Z,17.57
2022-10-23T03:48:42.028Z,16.63
2022-10-23T03:51:09.933Z,16.80
2022-10-23T03:53:42.510Z,17.00
2022-10-23T03:56:11.486Z,15.20
2022-10-23T03:58:40.635Z,17.83
2022-10-23T04:01:08.993Z,16.77
2022-10-23T04:03:38.399Z,16.53
2022-10-23T04:06:07.323Z,17.90
2022-10-23T04:08:36.186Z,16.40
2022-10-23T04:11:11.672Z,15.63
2022-10-23T04:13:46.457Z,17.73
2022-10-23T04:16:15.188Z,18.80
2022-10-23T04:18:45.964Z,16.40
2022-10-23T04:21:13.830Z,16.70
2022-10-23T04:23:41.884Z,21.47
2022-10-23T04:26:15.876Z,16.73
2022-10-23T04:28:43.652Z,17.60
2022-10-23T04:31:11.622Z,17.70
2022-10-23T04:33:42.128Z,19.30
2022-10-23T04:36:10.901Z,18.27
2022-10-23T04:38:41.114Z,17.63
2022-10-23T04:41:09.092Z,19.27
2022-10-23T04:43:38.282Z,19.50
2022-10-23T04:46:06.680Z,21.43
2022-10-23T04:48:35.365Z,17.20
2022-10-23T04:51:25.915Z,18.00
2022-10-23T04:54:06.342Z,18.20
2022-10-23T04:57:00.598Z,16.27
2022-10-23T05:02:07.384Z,16.57
2022-10-23T05:04:35.245Z,16.50
2022-10-23T05:07:37.659Z,16.20
2022-10-23T05:10:15.260Z,17.57
2022-10-23T05:12:50.236Z,17.27
2022-10-23T05:15:19.413Z,19.27
2022-10-23T05:17:52.347Z,16.30
2022-10-23T05:20:26.692Z,14.73
2022-10-23T05:22:59.497Z,13.43
2022-10-23T05:25:30.897Z,16.53
2022-10-23T05:28:12.694Z,17.23
2022-10-23T05:30:43.139Z,14.03
2022-10-23T05:33:11.792Z,16.30
2022-10-23T05:35:45.337Z,17.87
2022-10-23T05:38:16.608Z,17.20
2022-10-23T05:40:45.157Z,17.30
2022-10-23T05:43:19.343Z,18.13
2022-10-23T05:46:11.617Z,16.77
2022-10-23T05:49:07.305Z,24.52
2022-10-23T05:51:50.705Z,20.97
2022-10-23T05:54:41.450Z,15.90
2022-10-23T05:57:23.869Z,15.73
2022-10-23T05:59:53.833Z,16.43
2022-10-23T06:02:25.955Z,14.37
2022-10-23T06:05:00.742Z,15.43
2022-10-23T06:07:47.820Z,13.50
2022-10-23T06:10:15.770Z,15.47
2022-10-23T06:12:47.057Z,15.03
2022-10-23T06:15:18.525Z,17.90
2022-10-23T06:18:02.505Z,12.73
2022-10-23T06:20:37.313Z,15.43
2022-10-23T06:23:13.092Z,12.33
2022-10-23T06:25:59.409Z,11.98
2022-10-23T06:28:37.192Z,14.43
2022-10-23T06:31:06.616Z,13.43
2022-10-23T06:33:36.010Z,15.13
2022-10-23T06:36:10.182Z,14.97
2022-10-23T06:38:41.674Z,12.35
2022-10-23T06:41:16.395Z,13.53
2022-10-23T06:43:49.051Z,13.30
2022-10-23T06:46:24.385Z,12.10
2022-10-23T06:49:12.063Z,11.70
2022-10-23T06:51:46.909Z,11.40
2022-10-23T06:54:15.843Z,13.67
2022-10-23T06:56:49.315Z,13.77
2022-10-23T06:59:21.005Z,16.13
2022-10-23T07:01:51.592Z,15.13
2022-10-23T07:04:20.893Z,15.13
2022-10-23T07:06:49.715Z,11.37
2022-10-23T07:09:24.598Z,12.57
2022-10-23T07:11:52.489Z,11.87
2022-10-23T07:14:24.379Z,11.80
2022-10-23T07:16:54.415Z,13.00
2022-10-23T07:19:24.423Z,13.10
2022-10-23T07:21:56.721Z,10.30
2022-10-23T07:24:46.281Z,10.77
2022-10-23T07:27:28.245Z,16.33
2022-10-23T07:29:58.272Z,11.83
2022-10-23T07:32:30.896Z,14.77
2022-10-23T07:35:37.159Z,11.27
2022-10-23T07:38:13.782Z,9.70
2022-10-23T07:40:45.735Z,10.80
2022-10-23T07:43:18.461Z,10.93
2022-10-23T07:45:48.991Z,14.93
2022-10-23T07:48:38.516Z,13.57
2022-10-23T07:51:12.305Z,12.43
2022-10-23T07:53:45.287Z,9.97
2022-10-23T07:56:31.571Z,11.53
2022-10-23T07:59:20.912Z,11.63
2022-10-23T08:01:56.458Z,13.37
2022-10-23T08:04:30.015Z,9.07
2022-10-23T08:07:07.950Z,9.13
2022-10-23T08:09:41.170Z,9.60
2022-10-23T08:12:09.995Z,13.50
2022-10-23T08:14:39.137Z,10.80
2022-10-23T08:17:09.901Z,9.83
2022-10-23T08:20:03.576Z,12.30
2022-10-23T08:22:39.202Z,9.83
2022-10-23T08:25:08.099Z,9.47
2022-10-23T08:27:37.057Z,9.17
2022-10-23T08:30:06.806Z,12.67
2022-10-23T08:32:34.769Z,9.20
2022-10-23T08:35:04.504Z,10.10
2022-10-23T08:37:36.315Z,9.07
2022-10-23T08:40:07.283Z,8.83
2022-10-23T08:43:21.951Z,10.13
2022-10-23T08:46:12.990Z,13.57
2022-10-23T08:49:28.734Z,8.87
2022-10-23T08:52:15.679Z,9.80
2022-10-23T08:55:00.140Z,9.60
2022-10-23T08:57:40.086Z,9.88
2022-10-23T09:00:15.891Z,8.40
2022-10-23T09:02:47.183Z,10.13
2022-10-23T09:05:19.947Z,10.80
2022-10-23T09:08:08.684Z,10.03
2022-10-23T09:10:56.543Z,10.07
2022-10-23T09:13:56.133Z,10.73
2022-10-23T09:16:43.066Z,8.35
2022-10-23T09:19:17.121Z,10.30
2022-10-23T09:21:49.888Z,8.32
2022-10-23T09:24:20.890Z,8.15
2022-10-23T09:26:53.129Z,8.10
2022-10-23T09:29:29.021Z,9.32
2022-10-23T09:32:00.166Z,9.25
2022-10-23T09:34:31.532Z,10.57
2022-10-23T09:37:03.020Z,8.07
2022-10-23T09:39:33.953Z,7.22
2022-10-23T09:42:20.886Z,7.63
2022-10-23T09:44:52.644Z,8.98
2022-10-23T09:47:24.482Z,7.43
2022-10-23T09:49:55.084Z,7.25
2022-10-23T09:52:33.256Z,8.80
2022-10-23T09:55:18.477Z,8.85
2022-10-23T09:57:47.819Z,9.73
2022-10-23T10:00:21.153Z,8.18
2022-10-23T10:02:58.974Z,10.52
2022-10-23T10:06:00.959Z,9.90
2022-10-23T10:08:41.330Z,6.28
2022-10-23T10:11:19.951Z,8.88
2022-10-23T10:14:04.732Z,7.35
2022-10-23T10:16:50.529Z,7.00
2022-10-23T10:19:48.754Z,9.68
2022-10-23T10:22:32.349Z,8.23
2022-10-23T10:25:11.366Z,7.43
2022-10-23T10:27:56.870Z,6.85
2022-10-23T10:30:34.172Z,8.35
2022-10-23T10:33:14.576Z,7.07
2022-10-23T10:35:53.533Z,6.90
2022-10-23T10:38:48.303Z,9.60
2022-10-23T10:41:37.375Z,7.13
2022-10-23T10:44:35.925Z,9.68
2022-10-23T10:47:21.045Z,5.40
2022-10-23T10:50:07.574Z,7.10
2022-10-23T10:53:02.421Z,6.30
2022-10-23T10:55:38.357Z,6.30
2022-10-23T10:58:18.620Z,8.18
2022-10-23T11:00:53.009Z,5.07
2022-10-23T11:03:39.171Z,8.10
2022-10-23T11:06:16.848Z,6.43
2022-10-23T11:08:57.477Z,5.70
2022-10-23T11:11:35.861Z,5.65
2022-10-23T11:14:04.286Z,8.82
2022-10-23T11:16:38.056Z,5.80
2022-10-23T11:19:18.425Z,7.18
2022-10-23T11:21:58.136Z,6.18
2022-10-23T11:25:05.938Z,5.72
2022-10-23T11:28:10.209Z,8.02
2022-10-23T11:30:59.353Z,5.13
2022-10-23T11:34:13.790Z,6.05
2022-10-23T11:36:50.324Z,6.32
2022-10-23T11:39:31.746Z,4.85
2022-10-23T11:42:15.693Z,5.13
2022-10-23T11:44:46.706Z,4.20
2022-10-23T11:47:39.282Z,5.30
2022-10-23T11:50:31.071Z,10.02
2022-10-23T11:53:20.888Z,5.60
2022-10-23T11:56:25.460Z,6.80
2022-10-23T11:58:57.162Z,5.50
2022-10-23T12:01:33.891Z,6.85
2022-10-23T12:04:16.845Z,7.15
2022-10-23T12:06:50.164Z,7.40
2022-10-23T12:09:37.373Z,6.38
2022-10-23T12:12:17.788Z,8.10
2022-10-23T12:14:48.686Z,6.63
2022-10-23T12:17:33.357Z,6.43
2022-10-23T12:20:25.759Z,7.37
2022-10-23T12:23:34.241Z,5.18
2022-10-23T12:26:28.972Z,6.30
2022-10-23T12:29:11.947Z,4.50
2022-10-23T12:31:54.057Z,8.13
2022-10-23T12:34:45.015Z,5.68
2022-10-23T12:37:45.470Z,5.85
2022-10-23T12:40:13.575Z,5.43
2022-10-23T12:42:54.983Z,6.18
2022-10-23T12:45:27.488Z,6.18
2022-10-23T12:47:55.590Z,4.35
2022-10-23T12:50:28.191Z,6.20
2022-10-23T12:52:58.753Z,5.68
2022-10-23T12:55:35.062Z,4.47
2022-10-23T12:58:05.212Z,9.13
2022-10-23T13:00:33.254Z,7.55
2022-10-23T13:03:03.948Z,4.00
2022-10-23T13:05:32.696Z,4.25
2022-10-23T13:08:02.547Z,4.50
2022-10-23T13:10:50.225Z,6.85
2022-10-23T13:13:24.355Z,7.93
2022-10-23T13:15:52.204Z,5.22
2022-10-23T13:18:21.664Z,5.75
2022-10-23T13:20:59.608Z,5.45
2022-10-23T13:23:31.383Z,8.13
2022-10-23T13:26:01.823Z,3.65
2022-10-23T13:28:34.953Z,7.45
2022-10-23T13:31:25.242Z,6.03
2022-10-23T13:34:16.220Z,5.43
2022-10-23T13:36:54.495Z,5.10
2022-10-23T13:39:26.165Z,3.17
2022-10-23T13:41:54.206Z,3.60
2022-10-23T13:44:25.003Z,3.40
2022-10-23T13:46:52.972Z,6.32
2022-10-23T13:49:21.026Z,4.50
2022-10-23T13:52:22.305Z,3.40
2022-10-23T13:54:48.278Z,4.72
2022-10-23T13:57:35.249Z,5.43
2022-10-23T14:00:06.952Z,7.05
2022-10-23T14:02:40.189Z,5.00
2022-10-23T14:05:08.652Z,6.68
2022-10-23T14:07:36.911Z,3.67
2022-10-23T14:10:07.651Z,4.13
2022-10-23T14:12:42.055Z,4.60
2022-10-23T14:15:13.848Z,4.30
2022-10-23T14:17:41.663Z,3.45
2022-10-23T14:20:11.864Z,10.60
2022-10-23T14:22:42.049Z,5.05
2022-10-23T14:25:12.497Z,4.93
2022-10-23T14:27:40.344Z,7.50
2022-10-23T14:30:10.082Z,4.18
2022-10-23T14:32:39.750Z,6.22
2022-10-23T14:35:08.656Z,6.07
2022-10-23T14:37:36.735Z,4.53
2022-10-23T14:40:06.514Z,4.97
2022-10-23T14:42:34.518Z,7.85
2022-10-23T14:45:03.595Z,18.20
2022-10-23T14:47:31.946Z,6.90
2022-10-23T14:50:01.117Z,4.43
2022-10-23T14:52:29.024Z,4.13
2022-10-23T14:54:56.840Z,4.78
2022-10-23T14:57:25.022Z,8.20
2022-10-23T14:59:52.793Z,3.38
2022-10-23T15:02:20.604Z,5.35
2022-10-23T15:04:48.391Z,3.08
2022-10-23T15:07:18.312Z,3.35
2022-10-23T15:09:46.200Z,5.70
2022-10-23T15:12:13.974Z,5.88
2022-10-23T15:14:41.732Z,5.43
2022-10-23T15:17:14.547Z,4.82
2022-10-23T15:19:43.690Z,3.45
2022-10-23T15:22:11.666Z,3.72
2022-10-23T15:24:41.018Z,5.47
2022-10-23T15:29:37.990Z,4.18
2022-10-23T15:32:07.733Z,9.65
2022-10-23T15:34:37.822Z,6.18
2022-10-23T15:37:06.041Z,4.72
2022-10-23T15:39:35.472Z,10.18
2022-10-23T15:42:09.414Z,5.82
2022-10-23T15:44:39.649Z,6.68
2022-10-23T15:47:07.684Z,3.53
2022-10-23T15:49:36.869Z,8.35
2022-10-23T15:52:05.006Z,6.57
2022-10-23T15:54:33.244Z,6.68
2022-10-23T15:57:03.699Z,4.65
2022-10-23T15:59:33.846Z,6.07
2022-10-23T16:02:01.856Z,7.22
2022-10-23T16:04:30.307Z,7.85
2022-10-23T16:06:58.235Z,4.80
2022-10-23T16:09:26.225Z,7.90
2022-10-23T16:11:54.085Z,6.93
2022-10-23T16:14:21.904Z,3.58
2022-10-23T16:16:51.288Z,8.18
2022-10-23T16:19:20.208Z,5.38
2022-10-23T16:21:48.305Z,9.07
2022-10-23T16:24:16.986Z,8.15
2022-10-23T16:26:50.225Z,7.25
2022-10-23T16:29:19.017Z,6.60
2022-10-23T16:31:46.848Z,5.00
2022-10-23T16:34:16.457Z,7.88
2022-10-23T16:36:45.057Z,5.85
2022-10-23T16:39:33.786Z,7.63
2022-10-23T16:42:20.258Z,6.25
2022-10-23T16:45:12.082Z,8.63
2022-10-23T16:47:39.972Z,6.55
2022-10-23T16:50:11.564Z,9.73
2022-10-23T16:52:39.832Z,5.60
2022-10-23T16:55:10.033Z,8.10
2022-10-23T16:57:38.424Z,8.88
2022-10-23T17:00:07.952Z,8.30
2022-10-23T17:02:38.055Z,4.32
2022-10-23T17:05:08.386Z,6.38
2022-10-23T17:07:37.862Z,9.45
2022-10-23T17:10:12.693Z,11.32
2022-10-23T17:12:40.549Z,6.43
2022-10-23T17:15:10.534Z,5.93
2022-10-23T17:17:38.429Z,6.30
2022-10-23T17:20:07.607Z,6.85
2022-10-23T17:22:39.005Z,6.38
2022-10-23T17:25:10.729Z,7.60
2022-10-23T17:27:39.097Z,9.52
2022-10-23T17:30:12.633Z,6.60
2022-10-23T17:32:41.505Z,7.68
2022-10-23T17:35:11.900Z,8.57
2022-10-23T17:37:41.316Z,9.75
2022-10-23T17:40:11.525Z,9.23
2022-10-23T17:42:40.605Z,17.40
2022-10-23T17:45:10.151Z,16.00
2022-10-23T17:47:41.287Z,13.68
2022-10-23T17:50:13.006Z,12.75
2022-10-23T17:52:42.890Z,13.15
2022-10-23T17:55:11.473Z,9.52
2022-10-23T17:57:40.008Z,10.70
2022-10-23T18:00:09.884Z,7.28
2022-10-23T18:02:44.680Z,9.93
2022-10-23T18:05:13.054Z,9.52
2022-10-23T18:07:42.536Z,9.35
2022-10-23T18:10:11.781Z,12.20
2022-10-23T18:12:40.500Z,10.60
2022-10-23T18:15:11.212Z,11.68
2022-10-23T18:17:39.027Z,14.15
2022-10-23T18:20:08.588Z,12.48
2022-10-23T18:22:36.863Z,14.43
2022-10-23T18:25:07.610Z,14.50
2022-10-23T18:27:36.713Z,11.90
2022-10-23T18:30:06.706Z,17.85
2022-10-23T18:32:34.673Z,10.73
2022-10-23T18:35:02.811Z,11.40
2022-10-23T18:37:38.978Z,17.20
2022-10-23T18:40:13.326Z,13.20
2022-10-23T18:42:42.701Z,13.45
2022-10-23T18:45:14.383Z,14.20
2022-10-23T18:47:42.788Z,15.90
2022-10-23T18:50:12.221Z,15.50
2022-10-23T18:52:42.758Z,19.88
2022-10-23T18:55:13.561Z,14.32
2022-10-23T18:57:42.032Z,14.98
2022-10-23T19:00:13.254Z,17.52
2022-10-23T19:02:47.719Z,14.95
2022-10-23T19:05:19.363Z,14.98
2022-10-23T19:07:50.611Z,16.25
2022-10-23T19:10:23.919Z,18.63
2022-10-23T19:12:52.483Z,12.57
2022-10-23T19:15:20.651Z,13.82
2022-10-23T19:17:55.175Z,13.20
2022-10-23T19:23:02.396Z,15.90
2022-10-23T19:25:37.650Z,12.90
2022-10-23T19:28:06.558Z,11.98
2022-10-23T19:30:35.306Z,11.40
2022-10-23T19:33:04.221Z,10.70
2022-10-23T19:35:32.560Z,10.57
2022-10-23T19:38:00.390Z,11.60
2022-10-23T19:40:28.305Z,12.45
2022-10-23T19:42:57.924Z,12.80
2022-10-23T19:45:25.937Z,14.18
2022-10-23T19:47:54.204Z,9.82
2022-10-23T19:50:22.123Z,12.93
2022-10-23T19:52:51.404Z,8.73
2022-10-23T19:55:22.077Z,9.95
2022-10-23T19:57:49.913Z,10.40
2022-10-23T20:00:20.360Z,15.82
2022-10-23T20:02:50.215Z,14.32
2022-10-23T20:05:22.169Z,11.63
2022-10-23T20:07:51.338Z,10.65
2022-10-23T20:10:19.459Z,10.43
2022-10-23T20:12:56.878Z,9.02
2022-10-23T20:15:41.080Z,12.98
2022-10-23T20:18:11.549Z,7.60
2022-10-23T20:20:41.643Z,9.30
2022-10-23T20:23:12.389Z,10.43
2022-10-23T20:25:40.231Z,11.05
2022-10-23T20:28:10.244Z,11.25
2022-10-23T20:30:43.630Z,12.93
2022-10-23T20:33:12.052Z,9.38
2022-10-23T20:35:41.424Z,8.00
2022-10-23T20:38:09.974Z,9.52
2022-10-23T20:40:39.203Z,8.60
2022-10-23T20:43:07.223Z,9.07
2022-10-23T20:45:35.062Z,8.25
2022-10-23T20:48:05.122Z,10.70
2022-10-23T20:50:34.616Z,11.68
2022-10-23T20:53:02.477Z,8.63
2022-10-23T20:55:30.338Z,8.57
2022-10-23T20:57:58.165Z,11.43
2022-10-23T21:00:26.370Z,10.82
2022-10-23T21:02:54.502Z,8.82
2022-10-23T21:05:23.855Z,11.55
2022-10-23T21:07:51.683Z,9.18
2022-10-23T21:10:19.602Z,7.32
2022-10-23T21:12:47.403Z,9.82
2022-10-23T21:15:15.355Z,9.75
2022-10-23T21:17:43.176Z,8.25
2022-10-23T21:20:11.002Z,10.65
2022-10-23T21:22:40.405Z,14.85
2022-10-23T21:25:09.427Z,11.27
2022-10-23T21:27:37.638Z,11.38
2022-10-23T21:30:08.141Z,10.80
2022-10-23T21:32:36.467Z,10.88
2022-10-23T21:35:06.207Z,9.98
2022-10-23T21:37:34.036Z,9.60
2022-10-23T21:40:04.056Z,12.38
2022-10-23T21:42:33.589Z,9.85
2022-10-23T21:45:01.468Z,10.20
2022-10-23T21:47:29.369Z,9.82
2022-10-23T21:49:57.133Z,10.73
2022-10-23T21:52:24.962Z,10.68
2022-10-23T21:54:53.602Z,12.32
2022-10-23T21:57:22.758Z,11.18
2022-10-23T21:59:50.637Z,11.80
2022-10-23T22:02:18.831Z,15.18
2022-10-23T22:04:46.903Z,17.73
2022-10-23T22:07:14.933Z,14.85
2022-10-23T22:09:44.570Z,13.60
2022-10-23T22:12:12.788Z,13.38
2022-10-23T22:14:42.615Z,12.73
2022-10-23T22:17:10.446Z,17.08
2022-10-23T22:19:38.510Z,14.82
2022-10-23T22:22:06.502Z,16.02
2022-10-23T22:24:36.583Z,14.32
2022-10-23T22:27:05.074Z,12.77
2022-10-23T22:29:32.871Z,17.65
2022-10-23T22:32:02.280Z,13.73
2022-10-23T22:37:18.841Z,11.52
2022-10-23T22:39:50.411Z,13.77
2022-10-23T22:42:18.366Z,14.40
2022-10-23T22:44:46.235Z,11.82
2022-10-23T22:47:15.425Z,15.32
2022-10-23T22:49:43.209Z,11.40
2022-10-23T22:52:11.033Z,15.52
2022-10-23T22:54:39.770Z,15.60
2022-10-23T22:57:07.632Z,15.85
2022-10-23T22:59:35.692Z,14.93
2022-10-23T23:02:03.976Z,15.80
2022-10-23T23:04:37.839Z,11.68
2022-10-23T23:07:08.867Z,15.50
2022-10-23T23:09:39.114Z,13.25
2022-10-23T23:12:10.217Z,12.32
2022-10-23T23:14:39.970Z,13.90
2022-10-23T23:17:09.752Z,15.70
2022-10-23T23:19:39.538Z,13.32
2022-10-23T23:22:08.067Z,15.95
2022-10-23T23:24:36.126Z,17.85
2022-10-23T23:27:04.245Z,13.88
2022-10-23T23:29:32.237Z,13.73
2022-10-23T23:32:00.389Z,17.02
2022-10-23T23:34:30.375Z,11.43
2022-10-23T23:36:59.612Z,14.27
2022-10-23T23:39:28.531Z,12.15
2022-10-23T23:41:56.536Z,14.57
2022-10-23T23:44:24.496Z,14.93
2022-10-23T23:46:53.045Z,15.40
2022-10-23T23:49:20.890Z,22.25
2022-10-23T23:51:48.878Z,15.30
2022-10-23T23:54:18.287Z,16.63
2022-10-23T23:56:46.064Z,18.70
2022-10-23T23:59:14.911Z,17.52
